Terminal Aerodrome Forecast
Issued by NWS

Home | Current Version | Previous Version | Text Only | Print | Product List | Glossary On
Versions: 1 2 3 4 5 6 7 8 9 10 11 12 13 14 15 16 17 18 19 20 21 22 23 24 25 26 27 28 29 30 31 32 33 34 35 36 37 38 39 40 41 42 43 44 45 46 47 48 49 50
000
FTUS46 KEKA 271157 AAA
TAFACV
TAF AMD
KACV 271157Z 2712/2812 00000KT 3SM BR OVC002
     FM271400 VRB04KT 3SM BR OVC002
     FM271800 23008KT 5SM BR OVC006
     FM272200 26005KT P6SM FEW250
     FM280200 VRB04KT P6SM BKN012
     FM280600 16004KT P6SM OVC006=

USA.gov is the U.S. government's official web portal to all federal, state and local government web resources and services.